Time;durP1;ratioP1;P1;durP2;ratioP2;P2;SDS_P1;SDS_P2;PMS_P1;PMS_P2;Temp;Humidity;BMP_temperature;BMP_pressure;BME280_temperature;BME280_humidity;BME280_pressure;Samples;Min_cycle;Max_cycle;Signal;HPM_P1;HPM_P2
2023/03/02 00:01:29;;;;;;;54.92;39.28;;;5.00;99.90;;;;;;5033369;28;20024;-79
2023/03/02 00:03:57;;;;;;;55.47;40.40;;;4.90;99.90;;;;;;5033633;28;20037;-79
2023/03/02 00:06:27;;;;;;;54.00;39.92;;;4.90;99.90;;;;;;5033340;28;20029;-79
2023/03/02 00:08:53;;;;;;;53.50;38.65;;;5.30;99.90;;;;;;5033616;28;20076;-79
2023/03/02 00:11:20;;;;;;;51.05;35.72;;;4.80;99.90;;;;;;5033796;28;20029;-79
2023/03/02 00:13:45;;;;;;;52.00;36.03;;;4.80;99.90;;;;;;5033361;28;20033;-79
2023/03/02 00:16:11;;;;;;;49.13;35.20;;;4.80;99.90;;;;;;5033007;28;20025;-79
2023/03/02 00:18:37;;;;;;;50.70;35.22;;;4.90;99.90;;;;;;5033196;28;20025;-79
2023/03/02 00:21:03;;;;;;;46.65;34.65;;;4.80;99.90;;;;;;5033554;28;20075;-79
2023/03/02 00:23:28;;;;;;;47.97;34.20;;;4.80;99.90;;;;;;5032477;28;20021;-79
2023/03/02 00:25:54;;;;;;;53.63;35.17;;;4.80;99.90;;;;;;5032971;28;20037;-80
2023/03/02 00:28:19;;;;;;;44.95;33.00;;;4.80;99.90;;;;;;5033157;28;20029;-79
2023/03/02 00:30:45;;;;;;;49.05;34.40;;;4.80;99.90;;;;;;5032593;28;20529;-79
2023/03/02 00:33:11;;;;;;;53.17;34.40;;;4.90;99.90;;;;;;5033296;28;20037;-79
2023/03/02 00:35:38;;;;;;;47.28;34.17;;;5.00;99.90;;;;;;5032980;28;20022;-80
2023/03/02 00:38:03;;;;;;;50.28;34.65;;;5.30;99.90;;;;;;5033017;28;20091;-79
2023/03/02 00:40:29;;;;;;;49.85;35.92;;;5.30;99.90;;;;;;5032909;28;20025;-79
2023/03/02 00:42:55;;;;;;;52.67;36.05;;;5.20;99.90;;;;;;5032548;28;20060;-79
2023/03/02 00:45:20;;;;;;;49.17;34.90;;;4.70;99.90;;;;;;5032385;28;20064;-79
2023/03/02 00:47:46;;;;;;;48.20;34.75;;;5.10;99.90;;;;;;5032907;28;20383;-79
2023/03/02 00:50:11;;;;;;;47.90;32.95;;;4.70;99.90;;;;;;5032399;28;20072;-79
2023/03/02 00:52:37;;;;;;;50.53;35.38;;;4.70;99.90;;;;;;5032941;28;20026;-79
2023/03/02 00:55:03;;;;;;;47.03;33.47;;;4.80;99.90;;;;;;5032618;28;20398;-79
2023/03/02 00:57:29;;;;;;;47.97;33.53;;;4.90;99.90;;;;;;5032304;28;20080;-79
2023/03/02 00:59:54;;;;;;;42.85;30.35;;;4.90;99.90;;;;;;5014562;28;20029;-79
2023/03/02 01:02:20;;;;;;;47.03;33.67;;;4.80;99.90;;;;;;5032766;28;20029;-79
2023/03/02 01:04:47;;;;;;;43.95;31.10;;;4.80;99.90;;;;;;5032449;28;20033;-79
2023/03/02 01:07:15;;;;;;;43.33;30.58;;;5.00;99.90;;;;;;5032273;28;20065;-79
2023/03/02 01:09:43;;;;;;;44.08;31.33;;;5.10;99.90;;;;;;5032292;28;20052;-79
2023/03/02 01:12:10;;;;;;;43.47;31.50;;;5.00;99.90;;;;;;5032467;28;20086;-80
2023/03/02 01:14:42;;;;;;;43.10;29.98;;;4.70;99.90;;;;;;5031881;28;20021;-80
2023/03/02 01:17:09;;;;;;;46.15;31.52;;;5.10;99.90;;;;;;5032084;28;20037;-80
2023/03/02 01:19:35;;;;;;;40.70;29.85;;;4.80;99.90;;;;;;5032196;28;20448;-79
2023/03/02 01:22:03;;;;;;;42.03;30.17;;;4.80;99.90;;;;;;5032394;28;20021;-79
2023/03/02 01:24:28;;;;;;;43.45;30.90;;;4.80;99.90;;;;;;5032189;28;20482;-79
2023/03/02 01:26:54;;;;;;;44.67;30.75;;;5.20;99.90;;;;;;5032238;28;20044;-79
2023/03/02 01:29:20;;;;;;;41.22;30.13;;;5.30;99.90;;;;;;5032181;28;20045;-79
2023/03/02 01:31:46;;;;;;;43.75;29.25;;;4.80;99.90;;;;;;5031971;28;20083;-79
2023/03/02 01:34:13;;;;;;;41.80;29.88;;;4.80;99.90;;;;;;5031780;28;20075;-80
2023/03/02 01:36:38;;;;;;;40.92;29.08;;;4.90;99.90;;;;;;5032475;28;20025;-79
2023/03/02 01:39:04;;;;;;;39.75;27.60;;;4.90;99.90;;;;;;5032025;28;20403;-79
2023/03/02 01:41:30;;;;;;;40.33;28.48;;;4.90;99.90;;;;;;5032413;28;20025;-79
2023/03/02 01:43:56;;;;;;;41.83;28.83;;;4.90;99.90;;;;;;5031600;28;20494;-79
2023/03/02 01:46:25;;;;;;;40.70;28.70;;;4.90;99.90;;;;;;5031783;28;20025;-79
2023/03/02 01:49:00;;;;;;;40.67;27.77;;;4.80;99.90;;;;;;5031965;28;20080;-79
2023/03/02 01:51:28;;;;;;;38.90;27.20;;;4.80;99.90;;;;;;5031970;28;20033;-79
2023/03/02 01:53:59;;;;;;;39.55;28.23;;;4.80;99.90;;;;;;5032178;28;20029;-79
2023/03/02 01:56:31;;;;;;;39.03;27.77;;;4.90;99.90;;;;;;5017499;28;20033;-79
2023/03/02 01:59:04;;;;;;;40.20;28.08;;;5.20;99.90;;;;;;5011791;28;20046;-79
2023/03/02 02:01:32;;;;;;;40.53;28.48;;;5.00;99.90;;;;;;5012296;28;20022;-79
2023/03/02 02:03:58;;;;;;;38.78;27.52;;;4.80;99.90;;;;;;5012156;28;20022;-80
2023/03/02 02:06:44;;;;;;;39.15;27.33;;;5.20;99.90;;;;;;5012161;28;20034;-79
2023/03/02 02:09:13;;;;;;;37.88;26.92;;;5.10;99.90;;;;;;5001329;28;20041;-79
2023/03/02 02:11:38;;;;;;;37.67;27.88;;;4.80;99.90;;;;;;5011857;28;20037;-79
2023/03/02 02:14:05;;;;;;;39.95;28.65;;;4.80;99.90;;;;;;5012142;28;20022;-79
2023/03/02 02:16:33;;;;;;;43.15;28.40;;;5.10;99.90;;;;;;5012444;28;20061;-79
2023/03/02 02:19:00;;;;;;;40.20;28.55;;;5.10;99.90;;;;;;5011729;28;20071;-80
2023/03/02 02:21:27;;;;;;;37.95;27.63;;;4.70;99.90;;;;;;5011882;28;20099;-79
2023/03/02 02:23:59;;;;;;;39.22;27.15;;;5.20;99.90;;;;;;4994757;28;20022;-79
2023/03/02 02:26:30;;;;;;;41.70;28.10;;;5.10;99.90;;;;;;5011579;28;20034;-79
2023/03/02 02:29:01;;;;;;;39.40;28.25;;;4.90;99.90;;;;;;5012018;28;20030;-80
2023/03/02 02:31:41;;;;;;;38.35;27.77;;;4.80;99.90;;;;;;5011962;28;20121;-79
2023/03/02 02:34:22;;;;;;;37.75;27.42;;;5.00;99.90;;;;;;5011843;28;20030;-80
2023/03/02 02:36:52;;;;;;;38.17;27.98;;;4.80;99.90;;;;;;5011794;28;20030;-79
2023/03/02 02:39:27;;;;;;;39.40;27.75;;;4.70;99.90;;;;;;5011670;28;20034;-79
2023/03/02 02:41:57;;;;;;;39.15;28.00;;;4.70;99.90;;;;;;5011842;28;20026;-80
2023/03/02 02:44:23;;;;;;;38.28;28.08;;;4.70;99.90;;;;;;5011589;28;20026;-80
2023/03/02 02:46:48;;;;;;;40.55;27.95;;;5.10;99.90;;;;;;5013468;28;20037;-80
2023/03/02 02:49:25;;;;;;;38.17;27.08;;;4.60;99.90;;;;;;5015755;28;20497;-80
2023/03/02 02:51:51;;;;;;;40.08;27.95;;;4.90;99.90;;;;;;5015289;28;20026;-79
2023/03/02 02:54:18;;;;;;;38.38;28.33;;;4.60;99.90;;;;;;5015093;28;20707;-79
2023/03/02 02:56:45;;;;;;;41.58;28.13;;;4.60;99.90;;;;;;5021896;28;20045;-79
2023/03/02 02:59:16;;;;;;;40.50;28.77;;;4.60;99.90;;;;;;5034922;28;20440;-80
2023/03/02 03:01:43;;;;;;;39.40;27.45;;;5.00;99.90;;;;;;5035048;28;20045;-79
2023/03/02 03:04:12;;;;;;;40.70;27.40;;;4.60;99.90;;;;;;5034797;28;20034;-79
2023/03/02 03:06:49;;;;;;;38.63;27.88;;;4.50;99.90;;;;;;5034648;28;20041;-79
2023/03/02 03:09:15;;;;;;;41.35;28.67;;;4.50;99.90;;;;;;5034389;28;20033;-79
2023/03/02 03:11:44;;;;;;;40.75;28.92;;;4.30;99.90;;;;;;5035046;28;20035;-79
2023/03/02 03:14:12;;;;;;;38.45;27.55;;;4.40;99.90;;;;;;5034381;28;20026;-79
2023/03/02 03:16:40;;;;;;;43.33;29.25;;;4.40;99.90;;;;;;5034542;28;20025;-79
2023/03/02 03:19:19;;;;;;;41.35;29.00;;;4.30;99.90;;;;;;5034316;28;20397;-79
2023/03/02 03:21:48;;;;;;;39.33;28.77;;;4.30;99.90;;;;;;5034441;28;20112;-79
2023/03/02 03:24:14;;;;;;;42.97;28.83;;;4.70;99.90;;;;;;5034324;28;20017;-79
2023/03/02 03:26:40;;;;;;;42.30;29.25;;;4.50;99.90;;;;;;5034191;28;20033;-79
2023/03/02 03:29:05;;;;;;;40.35;29.60;;;4.80;99.90;;;;;;5034294;28;20033;-79
2023/03/02 03:31:31;;;;;;;44.80;29.23;;;4.30;99.90;;;;;;5034190;28;20113;-79
2023/03/02 03:33:59;;;;;;;39.97;28.48;;;4.30;99.90;;;;;;5034436;28;20573;-79
2023/03/02 03:36:26;;;;;;;40.90;28.23;;;4.20;99.90;;;;;;5034134;28;20029;-79
2023/03/02 03:38:52;;;;;;;41.13;27.77;;;4.30;99.90;;;;;;5033779;28;20104;-79
2023/03/02 03:41:17;;;;;;;41.38;27.88;;;4.40;99.90;;;;;;5034386;28;20064;-79
2023/03/02 03:43:43;;;;;;;38.85;27.80;;;4.70;99.90;;;;;;5033934;28;20021;-79
2023/03/02 03:46:09;;;;;;;36.80;26.83;;;4.40;99.90;;;;;;5016500;28;20460;-79
2023/03/02 03:48:34;;;;;;;39.80;27.58;;;4.40;99.90;;;;;;5033983;28;20494;-79
2023/03/02 03:51:00;;;;;;;42.08;27.90;;;4.30;99.90;;;;;;5016122;28;20036;-79
2023/03/02 03:53:26;;;;;;;43.95;28.10;;;4.60;99.90;;;;;;5033700;28;20079;-80
2023/03/02 03:55:53;;;;;;;37.85;27.25;;;4.30;99.90;;;;;;5032985;28;20053;-79
2023/03/02 03:58:18;;;;;;;40.72;28.25;;;4.30;99.90;;;;;;5012629;28;20034;-80
2023/03/02 04:00:46;;;;;;;38.38;27.33;;;4.30;99.90;;;;;;5014045;28;20026;-80
2023/03/02 04:03:14;;;;;;;38.72;27.17;;;4.50;99.90;;;;;;5014160;28;20033;-79
2023/03/02 04:05:39;;;;;;;40.22;28.30;;;4.00;99.90;;;;;;5013703;28;20033;-79
2023/03/02 04:08:05;;;;;;;37.72;26.65;;;4.10;99.90;;;;;;5013496;28;20038;-79
2023/03/02 04:10:31;;;;;;;39.60;26.65;;;4.10;99.90;;;;;;5013647;28;20025;-79
2023/03/02 04:12:57;;;;;;;39.90;26.58;;;4.40;99.90;;;;;;5014083;28;20049;-79
2023/03/02 04:15:23;;;;;;;41.15;26.85;;;4.60;99.90;;;;;;5013724;28;20089;-79
2023/03/02 04:17:49;;;;;;;37.20;26.25;;;4.10;99.90;;;;;;5013627;28;20026;-80
2023/03/02 04:20:18;;;;;;;39.38;27.77;;;4.20;99.90;;;;;;5013839;28;20394;-79
2023/03/02 04:22:45;;;;;;;39.22;26.92;;;4.20;99.90;;;;;;4995381;28;20372;-79
2023/03/02 04:25:12;;;;;;;40.92;27.50;;;4.10;99.90;;;;;;5013633;28;20029;-80
2023/03/02 04:27:38;;;;;;;41.63;27.27;;;4.20;99.90;;;;;;5013240;28;20430;-79
2023/03/02 04:30:05;;;;;;;38.40;27.27;;;4.10;99.90;;;;;;5013502;28;20076;-79
2023/03/02 04:32:31;;;;;;;35.72;25.63;;;4.00;99.90;;;;;;5013368;28;20084;-80
2023/03/02 04:34:56;;;;;;;39.13;26.92;;;4.20;99.90;;;;;;5013359;28;20491;-80
2023/03/02 04:37:22;;;;;;;38.78;27.13;;;3.80;99.90;;;;;;5013056;28;20033;-79
2023/03/02 04:39:50;;;;;;;40.33;27.33;;;4.20;99.90;;;;;;5013093;28;20026;-79
2023/03/02 04:42:17;;;;;;;38.70;27.17;;;4.30;99.90;;;;;;5013502;28;20384;-79
2023/03/02 04:44:43;;;;;;;40.88;27.65;;;4.10;99.90;;;;;;5013054;28;20057;-79
2023/03/02 04:47:09;;;;;;;41.47;27.30;;;4.00;99.90;;;;;;5013083;28;20120;-79
2023/03/02 04:49:35;;;;;;;42.47;28.67;;;4.10;99.90;;;;;;5013044;28;20390;-79
2023/03/02 04:52:01;;;;;;;39.13;27.73;;;4.50;99.90;;;;;;5012693;28;20030;-79
2023/03/02 04:54:27;;;;;;;38.22;27.48;;;4.10;99.90;;;;;;5012828;28;20025;-79
2023/03/02 04:56:54;;;;;;;39.03;27.83;;;4.20;99.90;;;;;;5021362;28;20079;-79
2023/03/02 04:59:24;;;;;;;38.78;27.00;;;4.30;99.90;;;;;;5032693;28;20024;-79
2023/03/02 05:01:51;;;;;;;38.03;27.35;;;4.30;99.90;;;;;;5032824;28;20086;-79
2023/03/02 05:04:17;;;;;;;40.13;28.05;;;4.10;99.90;;;;;;5032513;28;20026;-79
2023/03/02 05:06:44;;;;;;;38.17;27.23;;;4.50;99.90;;;;;;5032118;28;20402;-79
2023/03/02 05:09:10;;;;;;;41.50;28.35;;;4.10;99.90;;;;;;5031923;28;20028;-79
2023/03/02 05:11:36;;;;;;;42.25;28.38;;;4.00;99.90;;;;;;5032414;28;20431;-79
2023/03/02 05:14:04;;;;;;;39.70;28.20;;;4.00;99.90;;;;;;5032435;28;20013;-79
2023/03/02 05:16:32;;;;;;;38.85;26.95;;;4.00;99.90;;;;;;5032182;28;20490;-79
2023/03/02 05:18:59;;;;;;;40.67;28.65;;;4.00;99.90;;;;;;5032226;28;20108;-79
2023/03/02 05:21:24;;;;;;;40.67;28.15;;;4.00;99.90;;;;;;5032058;28;20029;-79
2023/03/02 05:23:51;;;;;;;38.53;27.52;;;4.00;99.90;;;;;;5032349;28;20028;-79
2023/03/02 05:26:17;;;;;;;44.13;28.17;;;4.10;99.90;;;;;;5032445;28;20235;-78
2023/03/02 05:28:43;;;;;;;43.45;27.17;;;4.40;99.90;;;;;;5032315;28;20041;-79
2023/03/02 05:31:17;;;;;;;40.15;28.38;;;4.10;99.90;;;;;;5032487;28;20056;-80
2023/03/02 05:33:43;;;;;;;41.10;28.52;;;4.00;99.90;;;;;;5031955;28;20063;-79
2023/03/02 05:36:09;;;;;;;41.20;28.05;;;4.10;99.90;;;;;;5031985;28;20541;-79
2023/03/02 05:38:35;;;;;;;41.25;28.50;;;4.30;99.90;;;;;;5032011;28;20021;-79
2023/03/02 05:41:02;;;;;;;42.17;28.52;;;4.10;99.90;;;;;;5031665;28;20059;-79
2023/03/02 05:43:28;;;;;;;40.65;27.92;;;4.40;99.90;;;;;;5032349;28;20013;-79
2023/03/02 05:45:59;;;;;;;42.47;27.20;;;4.20;99.90;;;;;;5031958;28;20065;-79
2023/03/02 05:48:28;;;;;;;42.65;29.10;;;4.50;99.90;;;;;;5031890;28;20033;-79
2023/03/02 05:50:54;;;;;;;41.92;28.17;;;4.20;99.90;;;;;;5031760;28;20022;-79
2023/03/02 05:53:20;;;;;;;41.10;28.10;;;4.10;99.90;;;;;;5031926;28;20063;-79
2023/03/02 05:55:45;;;;;;;42.78;27.67;;;4.10;99.90;;;;;;5031941;28;20417;-79
2023/03/02 05:58:14;;;;;;;38.72;27.30;;;3.80;99.90;;;;;;5012363;28;20376;-79
2023/03/02 06:00:40;;;;;;;40.13;27.90;;;4.20;99.90;;;;;;5012092;28;20153;-79
2023/03/02 06:03:06;;;;;;;42.85;28.90;;;3.90;99.90;;;;;;5012407;28;20109;-79
2023/03/02 06:05:32;;;;;;;44.15;28.80;;;4.10;99.90;;;;;;5011768;28;20550;-79
2023/03/02 06:07:57;;;;;;;44.90;30.42;;;4.30;99.90;;;;;;5012056;28;20383;-79
2023/03/02 06:10:24;;;;;;;50.47;33.28;;;4.40;99.90;;;;;;5012007;28;20030;-80
2023/03/02 06:12:50;;;;;;;42.35;28.30;;;4.20;99.90;;;;;;5012081;28;20486;-79
2023/03/02 06:15:16;;;;;;;42.35;27.88;;;4.10;99.90;;;;;;5011960;28;20037;-80
2023/03/02 06:17:41;;;;;;;43.47;29.55;;;4.10;99.90;;;;;;5012282;28;20049;-79
2023/03/02 06:20:09;;;;;;;44.33;28.13;;;4.20;99.90;;;;;;5011367;28;20026;-80
2023/03/02 06:22:46;;;;;;;45.92;33.10;;;4.20;99.90;;;;;;5015109;28;20017;-80
2023/03/02 06:25:18;;;;;;;43.90;29.17;;;4.20;99.90;;;;;;5015585;28;20037;-79
2023/03/02 06:27:45;;;;;;;40.58;27.95;;;4.20;99.90;;;;;;5015392;28;20037;-79
2023/03/02 06:30:14;;;;;;;43.58;28.73;;;4.20;99.90;;;;;;5015956;28;20033;-79
2023/03/02 06:32:40;;;;;;;41.55;29.30;;;4.20;99.90;;;;;;5015110;28;20045;-80
2023/03/02 06:35:07;;;;;;;47.53;32.75;;;4.30;99.90;;;;;;5014951;28;20026;-80
2023/03/02 06:37:33;;;;;;;49.97;32.55;;;4.20;99.90;;;;;;5015166;28;20061;-79
2023/03/02 06:39:59;;;;;;;49.88;31.75;;;4.30;99.90;;;;;;5015455;28;20064;-80
2023/03/02 06:42:25;;;;;;;50.65;32.83;;;4.60;99.90;;;;;;5015958;28;20507;-80
2023/03/02 06:44:53;;;;;;;59.20;37.45;;;4.30;99.90;;;;;;5015229;28;20110;-80
2023/03/02 06:47:23;;;;;;;58.75;37.35;;;4.60;99.90;;;;;;5014662;28;20506;-79
2023/03/02 06:49:48;;;;;;;72.30;42.17;;;4.30;99.90;;;;;;5015389;28;20022;-80
2023/03/02 06:52:15;;;;;;;45.72;30.55;;;4.70;99.90;;;;;;5015142;28;20029;-81
2023/03/02 06:54:41;;;;;;;44.03;30.13;;;4.40;99.90;;;;;;5015039;28;20030;-81
2023/03/02 06:57:06;;;;;;;46.10;29.65;;;4.30;99.90;;;;;;5034318;28;20412;-80
2023/03/02 06:59:32;;;;;;;41.28;27.13;;;4.50;99.90;;;;;;5034929;28;20430;-81
2023/03/02 07:01:58;;;;;;;40.47;27.52;;;4.70;99.90;;;;;;5034217;28;20025;-80
2023/03/02 07:04:23;;;;;;;40.92;28.00;;;4.90;99.90;;;;;;5034672;28;20490;-81
2023/03/02 07:06:50;;;;;;;42.42;29.23;;;5.30;99.90;;;;;;5034569;28;20417;-81
2023/03/02 07:09:15;;;;;;;110.43;61.40;;;5.10;99.90;;;;;;5034584;28;20432;-80
2023/03/02 07:11:41;;;;;;;84.47;49.63;;;4.60;99.90;;;;;;5034860;28;20112;-81
2023/03/02 07:14:07;;;;;;;57.10;34.92;;;4.90;99.90;;;;;;5033825;28;20033;-80
2023/03/02 07:16:33;;;;;;;45.58;29.48;;;4.80;99.90;;;;;;5033974;28;20033;-81
2023/03/02 07:19:00;;;;;;;45.90;28.80;;;4.70;99.90;;;;;;5035917;28;20021;-95
2023/03/02 07:21:25;;;;;;;44.42;29.10;;;5.50;99.90;;;;;;5019915;28;20164;-93
2023/03/02 07:23:51;;;;;;;51.08;30.77;;;5.50;99.90;;;;;;5035000;28;20025;-88
2023/03/02 07:26:17;;;;;;;40.97;28.10;;;5.80;99.90;;;;;;5034558;28;20478;-88
2023/03/02 07:28:43;;;;;;;44.63;28.67;;;5.90;99.90;;;;;;5017073;28;20049;-90
2023/03/02 07:31:09;;;;;;;44.97;29.20;;;6.10;99.90;;;;;;5034199;28;20037;-90
2023/03/02 07:33:37;;;;;;;38.72;28.15;;;6.20;99.90;;;;;;5033969;28;20021;-89
2023/03/02 07:36:03;;;;;;;47.45;31.33;;;6.30;99.90;;;;;;5034774;28;20029;-89
2023/03/02 07:38:28;;;;;;;42.22;29.90;;;6.20;99.90;;;;;;5034442;28;20044;-90
2023/03/02 07:40:54;;;;;;;45.78;29.77;;;6.30;99.90;;;;;;5034382;28;20028;-89
2023/03/02 07:43:22;;;;;;;44.25;29.50;;;6.30;99.90;;;;;;5034173;28;20473;-89
2023/03/02 07:45:48;;;;;;;46.58;29.95;;;6.40;99.90;;;;;;5033630;28;20033;-89
2023/03/02 07:48:14;;;;;;;41.85;29.83;;;6.30;99.90;;;;;;5016686;28;20082;-89
2023/03/02 07:50:40;;;;;;;44.67;31.02;;;6.40;99.90;;;;;;5033930;28;20033;-89
2023/03/02 07:53:05;;;;;;;45.78;31.15;;;6.40;99.90;;;;;;5016322;28;20033;-89
2023/03/02 07:55:31;;;;;;;43.72;30.95;;;6.40;99.90;;;;;;5033742;28;20059;-88
2023/03/02 07:57:57;;;;;;;51.33;34.45;;;6.50;99.90;;;;;;4998641;28;20026;-89
2023/03/02 08:00:23;;;;;;;46.17;30.17;;;6.50;99.90;;;;;;4996395;28;20466;-89
2023/03/02 08:02:48;;;;;;;41.92;29.67;;;6.60;99.90;;;;;;4996603;28;20034;-89
2023/03/02 08:05:14;;;;;;;42.17;29.52;;;6.50;99.90;;;;;;4996495;28;20077;-89
2023/03/02 08:07:41;;;;;;;40.83;29.77;;;6.50;99.90;;;;;;4996360;28;20378;-89
2023/03/02 08:10:07;;;;;;;42.38;29.58;;;6.50;99.90;;;;;;5013941;28;20080;-89
2023/03/02 08:12:33;;;;;;;46.13;31.20;;;6.50;99.90;;;;;;5013372;28;20500;-88
2023/03/02 08:14:58;;;;;;;45.22;29.98;;;6.60;99.90;;;;;;5013822;28;20105;-89
2023/03/02 08:17:24;;;;;;;42.30;29.55;;;6.50;99.90;;;;;;5013678;28;20034;-89
2023/03/02 08:19:50;;;;;;;42.03;29.35;;;6.60;99.90;;;;;;5013757;28;20026;-89
2023/03/02 08:22:15;;;;;;;52.10;34.53;;;6.60;99.90;;;;;;4996433;28;20030;-88
2023/03/02 08:24:41;;;;;;;43.85;30.15;;;6.80;99.90;;;;;;5013618;28;20025;-89
2023/03/02 08:27:10;;;;;;;40.72;28.73;;;7.00;99.90;;;;;;4996208;28;20121;-89
2023/03/02 08:29:36;;;;;;;41.40;30.00;;;6.90;99.90;;;;;;4995776;28;20022;-88
2023/03/02 08:32:02;;;;;;;42.65;29.73;;;7.20;99.90;;;;;;5013587;28;20386;-89
2023/03/02 08:34:27;;;;;;;41.20;29.65;;;7.20;99.90;;;;;;5013876;28;20053;-89
2023/03/02 08:36:53;;;;;;;41.45;29.23;;;7.20;99.90;;;;;;4996190;28;20041;-89
2023/03/02 08:39:21;;;;;;;41.55;28.40;;;7.10;99.90;;;;;;5013600;28;20532;-89
2023/03/02 08:41:52;;;;;;;36.72;26.92;;;6.90;99.90;;;;;;5013222;28;20103;-89
2023/03/02 08:44:20;;;;;;;37.28;27.52;;;7.20;99.90;;;;;;5012279;28;20141;-89
2023/03/02 08:46:47;;;;;;;38.60;28.00;;;7.30;99.90;;;;;;4995695;28;20038;-89
2023/03/02 08:49:13;;;;;;;39.65;28.17;;;7.30;99.90;;;;;;4995955;28;20388;-89
2023/03/02 08:51:39;;;;;;;36.05;26.23;;;7.60;99.90;;;;;;5013666;28;20033;-89
2023/03/02 08:54:05;;;;;;;37.92;26.83;;;7.70;99.90;;;;;;5012991;28;20022;-89
2023/03/02 08:56:34;;;;;;;37.60;27.35;;;7.70;99.90;;;;;;5000807;28;20211;-89
2023/03/02 08:59:09;;;;;;;37.00;26.80;;;7.90;99.90;;;;;;5032955;28;20486;-89
2023/03/02 09:01:36;;;;;;;35.75;26.60;;;7.70;99.90;;;;;;5015031;28;20087;-89
2023/03/02 09:04:04;;;;;;;36.58;27.80;;;7.90;99.90;;;;;;5032755;28;20026;-89
2023/03/02 09:06:31;;;;;;;37.90;27.65;;;8.30;99.90;;;;;;5015013;28;20128;-89
2023/03/02 09:08:57;;;;;;;36.60;26.88;;;9.00;99.90;;;;;;5015052;28;20535;-89
2023/03/02 09:11:23;;;;;;;39.58;28.05;;;9.50;99.90;;;;;;5032640;28;20037;-89
2023/03/02 09:13:49;;;;;;;39.28;27.90;;;9.20;99.90;;;;;;5032368;28;20025;-89
2023/03/02 09:16:15;;;;;;;37.40;28.05;;;9.30;99.90;;;;;;5032747;28;20394;-90
2023/03/02 09:18:41;;;;;;;39.88;28.95;;;9.00;99.90;;;;;;5032668;28;20025;-89
2023/03/02 09:21:06;;;;;;;39.70;28.63;;;9.80;99.90;;;;;;5032401;28;20026;-90
2023/03/02 09:23:34;;;;;;;41.97;28.35;;;11.00;99.90;;;;;;5032327;28;20017;-90
2023/03/02 09:25:59;;;;;;;39.05;29.25;;;11.30;99.90;;;;;;5032484;28;20120;-90
2023/03/02 09:28:25;;;;;;;40.10;28.77;;;12.00;99.90;;;;;;5014415;28;20168;-90
2023/03/02 09:30:54;;;;;;;36.40;28.88;;;12.70;99.90;;;;;;5014916;28;20034;-89
2023/03/02 09:33:20;;;;;;;37.80;29.50;;;14.60;99.90;;;;;;5014879;28;20125;-90
2023/03/02 09:35:46;;;;;;;37.42;29.52;;;14.80;99.90;;;;;;5014631;28;20029;-90
2023/03/02 09:38:15;;;;;;;37.60;30.33;;;14.20;99.90;;;;;;5032867;28;20108;-91
2023/03/02 09:41:19;;;;;;;36.78;29.90;;;15.30;99.90;;;;;;5032442;28;20420;-91
2023/03/02 09:44:12;;;;;;;37.08;29.48;;;16.50;99.90;;;;;;5014651;28;20029;-90
2023/03/02 09:47:09;;;;;;;37.05;31.23;;;17.20;99.90;;;;;;5032278;28;20489;-91
2023/03/02 09:49:53;;;;;;;38.55;31.23;;;17.10;99.90;;;;;;5019386;28;20038;-91
2023/03/02 09:52:35;;;;;;;35.95;29.25;;;17.00;99.90;;;;;;5032238;28;20026;-91
2023/03/02 09:55:22;;;;;;;34.55;29.67;;;17.60;99.90;;;;;;5032880;28;20449;-91
2023/03/02 09:57:49;;;;;;;37.10;30.73;;;18.20;99.90;;;;;;5019987;28;20576;-88
2023/03/02 10:00:27;;;;;;;34.30;30.60;;;18.00;99.90;;;;;;5016513;28;20033;-89
2023/03/02 10:03:08;;;;;;;36.13;32.28;;;17.80;99.90;;;;;;5016556;28;20026;-89
2023/03/02 10:05:40;;;;;;;35.63;31.83;;;18.70;99.90;;;;;;5016479;28;20022;-89
2023/03/02 10:08:13;;;;;;;33.17;29.67;;;18.30;99.90;;;;;;5016425;28;20038;-90
2023/03/02 10:10:39;;;;;;;34.45;30.73;;;17.80;99.90;;;;;;5016316;28;20037;-89
2023/03/02 10:13:31;;;;;;;35.55;31.83;;;18.10;99.90;;;;;;5016123;28;20028;-89
2023/03/02 10:15:57;;;;;;;37.80;30.88;;;18.70;99.90;;;;;;5016708;28;20030;-89
2023/03/02 10:18:45;;;;;;;35.65;32.05;;;18.20;99.90;;;;;;5016581;28;20061;-89
2023/03/02 10:21:21;;;;;;;34.95;31.25;;;19.00;99.90;;;;;;4998378;28;20026;-89
2023/03/02 10:24:11;;;;;;;34.72;31.15;;;19.40;99.90;;;;;;5015919;28;20077;-89
2023/03/02 10:26:47;;;;;;;36.10;32.30;;;19.10;99.90;;;;;;4998171;28;20041;-89
2023/03/02 10:29:23;;;;;;;37.30;33.42;;;18.70;99.90;;;;;;5016039;28;20034;-89
2023/03/02 10:31:54;;;;;;;36.63;32.92;;;19.40;99.90;;;;;;5015863;28;20560;-89
2023/03/02 10:34:23;;;;;;;37.03;33.25;;;20.20;99.90;;;;;;5016199;28;20026;-89
2023/03/02 10:36:48;;;;;;;36.83;33.05;;;20.30;99.90;;;;;;5016129;28;20362;-89
2023/03/02 10:39:16;;;;;;;37.50;33.70;;;21.40;99.90;;;;;;5015611;28;20041;-90
2023/03/02 10:42:05;;;;;;;37.30;33.50;;;21.70;99.90;;;;;;5015668;28;20444;-90
2023/03/02 10:44:36;;;;;;;36.45;32.83;;;20.80;99.90;;;;;;5015809;28;20026;-89
2023/03/02 10:47:03;;;;;;;36.67;32.88;;;20.90;99.90;;;;;;5015546;28;20073;-90
2023/03/02 10:49:40;;;;;;;37.42;33.60;;;21.30;99.90;;;;;;5015775;28;20026;-89
2023/03/02 10:52:23;;;;;;;37.50;33.70;;;21.50;99.90;;;;;;5016304;28;20100;-90
2023/03/02 10:54:51;;;;;;;37.75;34.05;;;22.00;99.90;;;;;;5015451;28;20029;-90
2023/03/02 10:57:30;;;;;;;36.42;32.83;;;22.10;99.90;;;;;;5027386;28;20049;-90
2023/03/02 11:00:12;;;;;;;37.13;33.15;;;21.70;99.90;;;;;;5017762;28;20036;-90
2023/03/02 11:02:37;;;;;;;36.97;32.95;;;21.20;99.90;;;;;;5035240;28;20026;-89
2023/03/02 11:05:26;;;;;;;38.17;34.53;;;21.20;99.90;;;;;;5017738;28;20096;-90
2023/03/02 11:07:54;;;;;;;37.10;33.40;;;21.30;99.90;;;;;;5034219;28;20425;-91
2023/03/02 11:10:22;;;;;;;36.97;33.28;;;22.10;99.90;;;;;;5017637;28;20026;-90
2023/03/02 11:12:51;;;;;;;36.15;32.65;;;22.20;99.90;;;;;;5035477;28;20079;-89
2023/03/02 11:15:31;;;;;;;35.13;31.67;;;22.70;99.90;;;;;;5034964;28;20496;-90
2023/03/02 11:18:11;;;;;;;37.15;33.45;;;22.70;99.90;;;;;;5017385;28;20034;-89
2023/03/02 11:20:44;;;;;;;36.22;32.83;;;22.40;99.90;;;;;;5035158;28;20032;-90
2023/03/02 11:23:25;;;;;;;37.67;33.92;;;23.10;99.90;;;;;;5034724;28;20104;-90
2023/03/02 11:26:00;;;;;;;37.03;33.53;;;23.20;99.90;;;;;;5034637;28;20481;-90
2023/03/02 11:28:42;;;;;;;36.70;32.83;;;23.50;99.90;;;;;;5034757;28;20040;-90
2023/03/02 11:31:27;;;;;;;37.97;34.28;;;23.50;99.90;;;;;;5017718;28;20025;-90
2023/03/02 11:34:01;;;;;;;34.38;30.98;;;22.90;99.90;;;;;;5034587;28;20026;-90
2023/03/02 11:36:38;;;;;;;34.83;31.52;;;22.90;99.90;;;;;;5034623;28;20053;-90
2023/03/02 11:39:11;;;;;;;35.28;32.05;;;22.40;99.90;;;;;;5034507;28;20025;-90
2023/03/02 11:41:37;;;;;;;36.80;33.17;;;22.70;99.90;;;;;;5034443;28;20026;-91
2023/03/02 11:44:13;;;;;;;36.53;33.03;;;22.30;99.90;;;;;;5034691;28;20047;-90
2023/03/02 11:46:43;;;;;;;36.90;33.22;;;22.10;99.90;;;;;;5016966;28;20069;-90
2023/03/02 11:49:41;;;;;;;37.33;33.83;;;22.80;99.90;;;;;;5034676;28;20022;-91
2023/03/02 11:52:19;;;;;;;35.80;32.33;;;23.70;99.90;;;;;;5034319;28;20029;-91
2023/03/02 11:54:51;;;;;;;34.95;31.65;;;23.40;99.90;;;;;;5034050;28;20397;-91
2023/03/02 11:57:19;;;;;;;35.70;32.13;;;21.80;99.90;;;;;;5022130;28;20525;-90
2023/03/02 11:59:46;;;;;;;36.22;32.83;;;21.90;99.90;;;;;;5014682;28;20021;-90
2023/03/02 12:02:13;;;;;;;35.88;32.42;;;22.20;99.90;;;;;;5014485;28;20474;-90
2023/03/02 12:04:38;;;;;;;35.67;32.20;;;22.50;99.90;;;;;;5014530;28;20030;-90
2023/03/02 12:07:21;;;;;;;35.63;32.05;;;22.50;99.90;;;;;;4996532;28;20038;-91
2023/03/02 12:10:22;;;;;;;35.97;32.38;;;23.40;99.90;;;;;;5014360;28;20022;-90
2023/03/02 12:13:19;;;;;;;35.03;31.73;;;23.90;99.90;;;;;;5014796;28;20038;-90
2023/03/02 12:15:49;;;;;;;34.33;31.15;;;24.00;99.90;;;;;;4997079;28;20153;-91
2023/03/02 12:18:43;;;;;;;35.50;32.00;;;23.30;99.90;;;;;;5013852;28;20104;-89
2023/03/02 12:21:15;;;;;;;34.33;31.02;;;23.60;99.90;;;;;;5013930;28;20112;-90
2023/03/02 12:23:50;;;;;;;35.13;31.58;;;23.60;99.90;;;;;;5014246;28;20060;-90
2023/03/02 12:26:19;;;;;;;34.83;31.52;;;23.70;99.90;;;;;;4996336;28;20033;-91
2023/03/02 12:29:06;;;;;;;33.85;30.70;;;23.40;99.90;;;;;;5013955;28;20496;-91
2023/03/02 12:31:46;;;;;;;33.72;30.67;;;24.00;99.90;;;;;;4996796;28;20112;-91
2023/03/02 12:34:34;;;;;;;35.10;31.67;;;23.80;99.90;;;;;;5013856;28;20029;-91
2023/03/02 12:37:06;;;;;;;36.38;32.85;;;23.80;99.90;;;;;;5013627;28;20045;-91
2023/03/02 12:39:47;;;;;;;35.70;32.35;;;23.80;99.90;;;;;;5013715;28;20113;-90
2023/03/02 12:42:57;;;;;;;35.38;32.03;;;23.10;99.90;;;;;;5013897;28;20109;-90
2023/03/02 12:45:31;;;;;;;35.05;31.58;;;23.00;99.90;;;;;;4956864;28;20039;-90